createdAt,value
2022-09-22T05:01:04.818Z,6.1
2022-09-22T05:02:10.347Z,6.1
2022-09-22T05:07:54.470Z,6.6
2022-09-22T05:13:31.198Z,7.1
2022-09-22T05:18:58.748Z,7.6
2022-09-22T05:24:41.739Z,8
2022-09-22T05:30:22.749Z,8.4
2022-09-22T05:35:59.756Z,8.9
2022-09-22T05:42:19.177Z,9.4
2022-09-22T05:47:56.617Z,10
2022-09-22T05:53:35.447Z,11.1
2022-09-22T05:59:13.684Z,12.4
2022-09-22T06:05:00.867Z,13.9
2022-09-22T06:10:34.724Z,15.1
2022-09-22T06:16:13.298Z,16.2
2022-09-22T06:21:41.390Z,17.2
2022-09-22T06:27:24.671Z,18
2022-09-22T06:32:47.853Z,18.8
2022-09-22T06:38:24.806Z,19.4
2022-09-22T06:44:02.102Z,20.2
2022-09-22T06:49:40.484Z,20.9
2022-09-22T06:55:23.551Z,21.6
2022-09-22T07:01:27.825Z,21.9
2022-09-22T07:07:06.935Z,22.9
2022-09-22T07:12:49.536Z,23.8
2022-09-22T07:18:27.505Z,30.5
2022-09-22T07:24:06.269Z,39.6
2022-09-22T07:29:43.846Z,40.7
2022-09-22T07:35:27.440Z,33.2
2022-09-22T07:41:06.660Z,37.8
2022-09-22T07:46:46.634Z,43.8
2022-09-22T07:52:29.203Z,32.4
2022-09-22T07:58:07.651Z,32.6
2022-09-22T08:03:45.438Z,42.1
2022-09-22T08:09:11.040Z,36.1
2022-09-22T08:14:49.472Z,40.9
2022-09-22T08:20:31.353Z,47.6
2022-09-22T08:26:09.016Z,48.9
2022-09-22T08:31:53.164Z,42.9
2022-09-22T08:37:14.657Z,37.1
2022-09-22T08:42:55.746Z,43.9
2022-09-22T08:48:21.792Z,51.1
2022-09-22T08:54:03.220Z,50.6
2022-09-22T08:59:40.947Z,53.3
2022-09-22T09:05:19.614Z,45.8
2022-09-22T09:10:58.295Z,38.3
2022-09-22T09:16:37.760Z,37.4
2022-09-22T09:29:01.564Z,53.9
2022-09-22T09:34:25.727Z,53.6
2022-09-22T09:40:04.415Z,50.7
2022-09-22T09:45:48.685Z,54.3
2022-09-22T09:51:26.692Z,54.8
2022-09-22T09:57:11.994Z,55.9
2022-09-22T10:02:50.086Z,57.5
2022-09-22T10:08:30.353Z,59
2022-09-22T10:14:12.797Z,53.2
2022-09-22T10:19:35.223Z,45.4
2022-09-22T10:25:15.050Z,44.3
2022-09-22T10:30:38.288Z,50.4
2022-09-22T10:36:18.959Z,56.7
2022-09-22T10:41:41.531Z,45.9
2022-09-22T10:47:45.263Z,57.6
2022-09-22T10:53:22.726Z,57.3
2022-09-22T10:58:59.763Z,57.4
2022-09-22T11:04:39.252Z,59.3
2022-09-22T11:10:17.546Z,58.6
2022-09-22T11:15:55.244Z,50.4
2022-09-22T11:21:33.627Z,44.4
2022-09-22T11:26:55.976Z,41.3
2022-09-22T11:32:45.763Z,37.8
2022-09-22T11:38:08.674Z,34.9
2022-09-22T11:43:46.366Z,32.8
2022-09-22T11:49:24.056Z,33.9
2022-09-22T11:55:07.075Z,37.5
2022-09-22T12:00:44.816Z,38.1
2022-09-22T12:06:12.412Z,38.2
2022-09-22T12:11:54.624Z,43.9
2022-09-22T12:17:17.697Z,54.8
2022-09-22T12:22:57.687Z,52.1
2022-09-22T12:28:58.133Z,45
2022-09-22T12:34:35.607Z,44.6
2022-09-22T12:40:17.432Z,45.6
2022-09-22T12:45:57.573Z,50.9
2022-09-22T12:51:21.171Z,57.3
2022-09-22T12:56:43.022Z,46.6
2022-09-22T13:02:22.125Z,43.4
2022-09-22T13:07:49.580Z,49.6
2022-09-22T13:12:56.410Z,51.4
2022-09-22T13:18:19.458Z,52.1
2022-09-22T13:23:57.459Z,49.8
2022-09-22T13:29:08.079Z,45.6
2022-09-22T13:34:54.058Z,41.7
2022-09-22T13:40:31.849Z,38.2
2022-09-22T13:45:54.433Z,36.1
2022-09-22T13:51:34.973Z,33.8
2022-09-22T13:57:17.222Z,32.3
2022-09-22T14:03:01.311Z,31.9
2022-09-22T14:08:53.416Z,33.2
2022-09-22T14:14:30.551Z,32.3
2022-09-22T14:20:08.638Z,33
2022-09-22T14:25:46.715Z,35.2
2022-09-22T14:31:24.524Z,37.1
2022-09-22T14:37:02.475Z,37.1
2022-09-22T14:43:13.386Z,36.8
2022-09-22T14:48:51.015Z,36.4
2022-09-22T14:54:29.368Z,34.6
2022-09-22T15:00:09.476Z,32.9
2022-09-22T15:05:32.669Z,31.4
2022-09-22T15:11:09.977Z,29.9
2022-09-22T15:16:33.703Z,28.3
2022-09-22T15:22:13.391Z,27
2022-09-22T15:27:53.323Z,25.8
2022-09-22T15:33:16.337Z,24.4
2022-09-22T15:38:53.965Z,23.3
2022-09-22T15:44:38.652Z,22
2022-09-22T15:50:01.693Z,20.9
2022-09-22T15:55:26.873Z,19.9
2022-09-22T16:01:04.861Z,18.9
2022-09-22T16:06:32.734Z,18.1
2022-09-22T16:11:54.394Z,17.3
2022-09-22T16:17:32.476Z,16.5
2022-09-22T16:23:11.059Z,15.7
2022-09-22T16:28:51.783Z,15
2022-09-22T16:34:29.333Z,14.3
2022-09-22T16:39:52.232Z,13.6
2022-09-22T16:44:43.724Z,13.1
2022-09-22T16:49:19.546Z,12.6
2022-09-22T16:54:41.861Z,12.1
2022-09-22T16:59:53.682Z,11.6
2022-09-22T17:05:36.219Z,11.2
2022-09-22T17:11:16.725Z,10.8
2022-09-22T17:16:55.209Z,10.4
2022-09-22T17:22:32.942Z,10.1
2022-09-22T17:28:09.868Z,9.7
2022-09-22T17:33:20.121Z,9.4
2022-09-22T17:38:41.681Z,9.2
2022-09-22T17:44:19.695Z,8.9
2022-09-22T17:49:42.552Z,8.8
2022-09-22T17:55:04.091Z,8.6
2022-09-22T18:00:28.685Z,8.5
2022-09-22T18:06:09.616Z,8.4
2022-09-22T18:11:37.068Z,8.4
2022-09-22T18:17:04.398Z,8.4
2022-09-22T18:22:42.644Z,8.4
2022-09-22T18:28:20.903Z,8.3
2022-09-22T18:33:58.579Z,8.3
2022-09-22T18:39:25.785Z,8.1
2022-09-22T18:45:05.383Z,8
2022-09-22T18:50:43.119Z,7.9
2022-09-22T18:56:22.758Z,7.8
2022-09-22T19:02:01.768Z,7.7
2022-09-22T19:07:25.500Z,7.6
2022-09-22T19:13:07.381Z,7.6
2022-09-22T19:18:33.972Z,7.4
2022-09-22T19:24:16.008Z,7.3
2022-09-22T19:29:40.404Z,7.2
2022-09-22T19:35:21.013Z,7.1
2022-09-22T19:41:01.263Z,7.1
2022-09-22T19:46:24.999Z,7.1
2022-09-22T19:52:02.233Z,7.1
2022-09-22T19:57:24.756Z,7.1
2022-09-22T20:03:03.277Z,7
2022-09-22T20:08:24.704Z,6.9
2022-09-22T20:14:17.811Z,6.9
2022-09-22T20:19:56.583Z,6.8
2022-09-22T20:25:33.924Z,6.7
2022-09-22T20:30:55.920Z,6.6
2022-09-22T20:36:36.763Z,6.6
2022-09-22T20:41:59.009Z,6.5
2022-09-22T20:47:36.367Z,6.4
2022-09-22T20:53:18.322Z,6.4
2022-09-22T20:58:44.107Z,6.4
2022-09-22T21:04:22.741Z,6.4
2022-09-22T21:10:00.223Z,6.4
2022-09-22T21:15:40.358Z,6.4
2022-09-22T21:21:17.903Z,6.3
2022-09-22T21:26:56.039Z,6.4
2022-09-22T21:32:33.844Z,6.4
2022-09-22T21:38:01.195Z,6.4
2022-09-22T21:43:39.692Z,6.4
2022-09-22T21:49:17.214Z,6.4
2022-09-22T21:54:54.039Z,6.4
2022-09-22T22:00:51.022Z,6.3
2022-09-22T22:06:14.180Z,6.3
2022-09-22T22:11:51.059Z,6.3
2022-09-22T22:17:13.602Z,6.3
2022-09-22T22:22:34.890Z,6.3
2022-09-22T22:28:12.371Z,6.3
2022-09-22T22:33:50.944Z,6.2
2022-09-22T22:39:11.647Z,6.1
2022-09-22T22:44:18.491Z,5.9
2022-09-22T22:49:41.021Z,5.8
2022-09-22T22:55:06.268Z,5.6
2022-09-22T23:00:33.751Z,5.4
2022-09-22T23:06:00.488Z,5.4
2022-09-22T23:11:21.871Z,5.4
2022-09-22T23:16:58.895Z,5.3
2022-09-22T23:22:21.333Z,5.2
2022-09-22T23:27:59.306Z,5.1
2022-09-22T23:33:36.039Z,5
2022-09-22T23:38:58.667Z,4.9
2022-09-22T23:44:35.001Z,4.9
2022-09-22T23:50:13.282Z,4.8
2022-09-22T23:55:36.148Z,4.8
